Time;durP1;ratioP1;P1;durP2;ratioP2;P2;SDS_P1;SDS_P2;PMS_P1;PMS_P2;Temp;Humidity;BMP_temperature;BMP_pressure;BME280_temperature;BME280_humidity;BME280_pressure;Samples;Min_cycle;Max_cycle;Signal;HPM_P1;HPM_P2
2024/02/24 00:01:24;;;;;;;9.10;3.45;;;5.10;99.90;;;;;;5064127;28;20033;-69
2024/02/24 00:03:50;;;;;;;7.85;3.15;;;5.10;99.90;;;;;;5064312;28;20107;-70
2024/02/24 00:06:15;;;;;;;8.30;3.15;;;5.00;99.90;;;;;;5064446;28;20021;-70
2024/02/24 00:08:42;;;;;;;7.78;3.50;;;5.00;99.90;;;;;;5062454;28;20053;-70
2024/02/24 00:11:07;;;;;;;8.05;3.03;;;5.00;99.90;;;;;;5063122;28;20029;-72
2024/02/24 00:13:33;;;;;;;5.78;2.97;;;4.90;99.90;;;;;;5064257;28;20067;-69
2024/02/24 00:15:59;;;;;;;8.23;2.83;;;4.90;99.90;;;;;;5062708;28;20036;-69
2024/02/24 00:18:24;;;;;;;8.32;3.63;;;4.90;99.90;;;;;;5064360;28;20028;-70
2024/02/24 00:20:50;;;;;;;9.80;2.92;;;4.90;99.90;;;;;;5063872;28;20032;-70
2024/02/24 00:23:15;;;;;;;11.23;3.10;;;4.90;99.90;;;;;;5062815;28;20116;-70
2024/02/24 00:25:41;;;;;;;7.35;2.70;;;4.90;99.90;;;;;;5064249;28;20499;-71
2024/02/24 00:28:09;;;;;;;6.70;2.83;;;4.90;99.90;;;;;;5063851;28;20052;-71
2024/02/24 00:30:35;;;;;;;9.30;2.80;;;4.80;99.90;;;;;;5063939;28;20031;-69
2024/02/24 00:33:00;;;;;;;6.63;2.95;;;4.80;99.90;;;;;;5063443;28;20104;-70
2024/02/24 00:35:28;;;;;;;11.60;3.30;;;4.80;99.90;;;;;;5063616;28;20017;-70
2024/02/24 00:37:55;;;;;;;5.95;2.55;;;4.80;99.90;;;;;;5063446;28;20029;-71
2024/02/24 00:40:20;;;;;;;7.72;2.53;;;4.80;99.90;;;;;;5063874;28;20122;-69
2024/02/24 00:42:46;;;;;;;10.10;2.38;;;4.80;99.90;;;;;;5063641;28;20037;-70
2024/02/24 00:45:12;;;;;;;5.50;2.40;;;4.80;99.90;;;;;;5063766;28;20033;-70
2024/02/24 00:47:37;;;;;;;10.35;2.92;;;4.70;99.90;;;;;;5063478;28;20056;-70
2024/02/24 00:50:03;;;;;;;7.38;2.70;;;4.70;99.90;;;;;;5063433;28;20418;-70
2024/02/24 00:52:31;;;;;;;6.20;2.70;;;4.70;99.90;;;;;;5063861;28;20032;-71
2024/02/24 00:54:56;;;;;;;10.23;2.85;;;4.70;99.90;;;;;;5058662;28;20043;-70
2024/02/24 00:57:23;;;;;;;7.50;2.88;;;4.70;99.90;;;;;;5062986;28;20123;-70
2024/02/24 00:59:49;;;;;;;9.00;2.97;;;4.60;99.90;;;;;;5063611;28;20071;-71
2024/02/24 01:02:14;;;;;;;7.13;2.42;;;4.60;99.90;;;;;;5063124;28;20311;-69
2024/02/24 01:04:40;;;;;;;11.88;2.75;;;4.60;99.90;;;;;;5063090;28;20033;-70
2024/02/24 01:07:06;;;;;;;9.65;2.70;;;4.60;99.90;;;;;;5063297;28;20051;-70
2024/02/24 01:09:32;;;;;;;7.70;2.55;;;4.60;99.90;;;;;;5062574;28;20478;-70
2024/02/24 01:11:57;;;;;;;3.80;2.17;;;4.60;99.90;;;;;;5063103;28;20025;-69
2024/02/24 01:14:23;;;;;;;5.07;2.42;;;4.60;99.90;;;;;;5062727;28;20049;-70
2024/02/24 01:16:48;;;;;;;6.88;2.50;;;4.50;99.90;;;;;;5060712;28;20037;-71
2024/02/24 01:19:14;;;;;;;6.47;2.65;;;4.50;99.90;;;;;;5059253;28;20040;-72
2024/02/24 01:21:45;;;;;;;9.32;2.80;;;4.50;99.90;;;;;;5059764;28;20528;-72
2024/02/24 01:24:16;;;;;;;6.82;2.72;;;4.50;99.90;;;;;;5058973;28;20017;-69
2024/02/24 01:26:41;;;;;;;8.13;2.65;;;4.50;99.90;;;;;;5060050;28;20048;-71
2024/02/24 01:29:07;;;;;;;11.52;2.70;;;4.50;99.90;;;;;;5060606;28;20048;-71
2024/02/24 01:31:32;;;;;;;8.63;2.80;;;4.40;99.90;;;;;;5061878;28;20084;-71
2024/02/24 01:33:58;;;;;;;8.75;2.40;;;4.40;99.90;;;;;;5061035;28;20025;-73
2024/02/24 01:36:26;;;;;;;8.82;2.45;;;4.40;99.90;;;;;;5062576;28;20036;-70
2024/02/24 01:38:55;;;;;;;9.00;2.53;;;4.40;99.90;;;;;;5062369;28;20475;-71
2024/02/24 01:41:21;;;;;;;7.88;2.47;;;4.30;99.90;;;;;;5061379;28;20390;-70
2024/02/24 01:43:46;;;;;;;9.32;2.17;;;4.30;99.90;;;;;;5062598;28;20017;-70
2024/02/24 01:46:14;;;;;;;5.63;2.30;;;4.30;99.90;;;;;;5062559;28;20029;-70
2024/02/24 01:48:39;;;;;;;9.48;2.80;;;4.30;99.90;;;;;;5061361;28;20058;-70
2024/02/24 01:51:06;;;;;;;7.10;2.45;;;4.30;99.90;;;;;;5062347;28;20021;-70
2024/02/24 01:53:32;;;;;;;7.20;2.50;;;4.30;99.90;;;;;;5062440;28;20025;-70
2024/02/24 01:55:59;;;;;;;8.32;2.75;;;4.30;99.90;;;;;;5062360;28;20361;-71
2024/02/24 01:58:28;;;;;;;13.57;2.80;;;4.30;99.90;;;;;;5062141;28;20033;-70
2024/02/24 02:00:54;;;;;;;12.27;2.67;;;4.30;99.90;;;;;;5062458;28;20044;-70
2024/02/24 02:03:20;;;;;;;8.80;2.60;;;4.30;99.90;;;;;;5062122;28;20029;-70
2024/02/24 02:05:47;;;;;;;6.47;2.15;;;4.30;99.90;;;;;;5062100;28;20482;-70
2024/02/24 02:08:12;;;;;;;7.03;2.78;;;4.30;99.90;;;;;;5060405;28;20057;-70
2024/02/24 02:10:45;;;;;;;8.10;2.72;;;4.20;99.90;;;;;;5059782;28;20032;-70
2024/02/24 02:13:11;;;;;;;12.57;3.15;;;4.30;99.90;;;;;;5061917;28;20049;-69
2024/02/24 02:15:39;;;;;;;10.15;2.80;;;4.20;99.90;;;;;;5062336;28;20032;-69
2024/02/24 02:18:05;;;;;;;9.02;2.33;;;4.20;99.90;;;;;;5061861;28;20025;-70
2024/02/24 02:20:31;;;;;;;8.65;2.60;;;4.20;99.90;;;;;;5062026;28;20109;-70
2024/02/24 02:22:56;;;;;;;10.73;2.85;;;4.20;99.90;;;;;;5062170;28;20025;-70
2024/02/24 02:25:22;;;;;;;5.00;2.30;;;4.20;99.90;;;;;;5062129;28;20056;-70
2024/02/24 02:27:47;;;;;;;6.03;2.22;;;4.20;99.90;;;;;;5065061;28;20047;-69
2024/02/24 02:30:13;;;;;;;9.70;2.70;;;4.10;99.90;;;;;;5066507;28;20032;-70
2024/02/24 02:32:39;;;;;;;6.15;2.53;;;4.20;99.90;;;;;;5064194;28;20033;-70
2024/02/24 02:35:06;;;;;;;10.63;2.60;;;4.20;99.90;;;;;;5066067;28;20033;-71
2024/02/24 02:37:32;;;;;;;9.32;2.80;;;4.20;99.90;;;;;;5066141;28;20131;-71
2024/02/24 02:39:58;;;;;;;9.40;2.90;;;4.10;99.90;;;;;;5065875;28;20021;-69
2024/02/24 02:42:23;;;;;;;5.93;2.38;;;4.10;99.90;;;;;;5065985;28;20028;-70
2024/02/24 02:44:49;;;;;;;7.22;2.92;;;4.10;99.90;;;;;;5066217;28;20083;-71
2024/02/24 02:47:14;;;;;;;7.97;2.33;;;4.10;99.90;;;;;;5064354;28;20029;-70
2024/02/24 02:49:40;;;;;;;9.80;2.63;;;4.10;99.90;;;;;;5065875;28;20527;-70
2024/02/24 02:52:05;;;;;;;8.00;3.00;;;4.10;99.90;;;;;;5065915;28;20087;-69
2024/02/24 02:54:31;;;;;;;6.20;2.55;;;4.10;99.90;;;;;;5064199;28;20017;-70
2024/02/24 02:56:57;;;;;;;9.95;2.65;;;4.10;99.90;;;;;;5065605;28;20036;-70
2024/02/24 02:59:22;;;;;;;8.38;2.67;;;4.10;99.90;;;;;;5065902;28;20060;-69
2024/02/24 03:01:51;;;;;;;6.82;2.90;;;4.10;99.90;;;;;;5065549;28;20025;-69
2024/02/24 03:04:18;;;;;;;9.93;2.72;;;4.10;99.90;;;;;;5064622;28;20095;-70
2024/02/24 03:06:44;;;;;;;10.00;3.00;;;4.00;99.90;;;;;;5065641;28;20799;-69
2024/02/24 03:09:10;;;;;;;7.40;3.08;;;4.00;99.90;;;;;;5063620;28;20099;-70
2024/02/24 03:11:36;;;;;;;8.57;3.20;;;4.00;99.90;;;;;;5065537;28;20021;-71
2024/02/24 03:14:03;;;;;;;7.15;2.47;;;3.90;99.90;;;;;;5065518;28;20024;-68
2024/02/24 03:16:28;;;;;;;6.97;2.72;;;3.90;99.90;;;;;;5064997;28;20183;-69
2024/02/24 03:18:54;;;;;;;8.00;3.05;;;3.80;99.90;;;;;;5065611;28;20037;-70
2024/02/24 03:21:27;;;;;;;10.27;3.03;;;3.70;99.90;;;;;;5064793;28;20040;-70
2024/02/24 03:23:53;;;;;;;9.50;3.20;;;3.70;99.90;;;;;;5063719;28;20044;-70
2024/02/24 03:26:18;;;;;;;8.00;2.63;;;3.70;99.90;;;;;;5065105;28;20017;-70
2024/02/24 03:28:44;;;;;;;7.47;2.67;;;3.70;99.90;;;;;;5064721;28;20084;-69
2024/02/24 03:31:09;;;;;;;10.15;3.25;;;3.60;99.90;;;;;;5064742;28;20039;-70
2024/02/24 03:33:35;;;;;;;12.18;3.72;;;3.60;99.90;;;;;;5065314;28;20386;-70
2024/02/24 03:36:01;;;;;;;10.75;3.63;;;3.50;99.90;;;;;;5065098;28;20033;-69
2024/02/24 03:38:27;;;;;;;9.27;3.47;;;3.50;99.90;;;;;;5062646;28;20028;-69
2024/02/24 03:40:52;;;;;;;11.38;3.10;;;3.50;99.90;;;;;;5065186;28;20029;-72
2024/02/24 03:43:18;;;;;;;8.95;2.90;;;3.50;99.90;;;;;;5063608;28;20028;-69
2024/02/24 03:45:43;;;;;;;11.95;3.50;;;3.50;99.90;;;;;;5064100;28;20088;-71
2024/02/24 03:48:09;;;;;;;9.05;2.97;;;3.40;99.90;;;;;;5064840;28;20089;-71
2024/02/24 03:50:35;;;;;;;12.90;3.35;;;3.40;99.90;;;;;;5064580;28;20021;-71
2024/02/24 03:53:00;;;;;;;9.40;2.83;;;3.40;99.90;;;;;;5063065;28;20163;-70
2024/02/24 03:55:26;;;;;;;6.38;2.92;;;3.40;99.90;;;;;;5064809;28;20025;-72
2024/02/24 03:57:52;;;;;;;10.07;3.10;;;3.40;99.90;;;;;;5064692;28;20067;-70
2024/02/24 04:00:17;;;;;;;11.70;3.38;;;3.30;99.90;;;;;;5064604;28;20025;-70
2024/02/24 04:02:43;;;;;;;8.05;3.15;;;3.30;99.90;;;;;;5063157;28;20017;-70
2024/02/24 04:05:09;;;;;;;8.48;2.92;;;3.30;99.90;;;;;;5063886;28;20017;-72
2024/02/24 04:07:35;;;;;;;6.65;2.80;;;3.30;99.90;;;;;;5064390;28;20029;-71
2024/02/24 04:10:00;;;;;;;8.10;3.17;;;3.30;99.90;;;;;;5064261;28;20041;-71
2024/02/24 04:12:26;;;;;;;7.60;3.00;;;3.30;99.90;;;;;;5064126;28;20100;-72
2024/02/24 04:14:51;;;;;;;8.88;3.10;;;3.20;99.90;;;;;;5063120;28;20039;-72
2024/02/24 04:17:17;;;;;;;12.20;3.50;;;3.20;99.90;;;;;;5064408;28;20040;-72
2024/02/24 04:19:42;;;;;;;9.98;3.17;;;3.20;99.90;;;;;;5063908;28;20025;-71
2024/02/24 04:22:08;;;;;;;13.75;3.33;;;3.20;99.90;;;;;;5064228;28;20029;-71
2024/02/24 04:24:33;;;;;;;9.10;2.78;;;3.20;99.90;;;;;;5063714;28;20052;-71
2024/02/24 04:26:59;;;;;;;6.70;3.03;;;3.20;99.90;;;;;;5062747;28;20228;-72
2024/02/24 04:29:25;;;;;;;6.40;3.17;;;3.20;99.90;;;;;;5061921;28;20490;-71
2024/02/24 04:31:51;;;;;;;10.77;2.90;;;3.20;99.90;;;;;;5061079;28;20035;-72
2024/02/24 04:34:16;;;;;;;9.18;2.97;;;3.20;99.90;;;;;;5062708;28;20028;-72
2024/02/24 04:36:42;;;;;;;10.55;2.85;;;3.20;99.90;;;;;;5063146;28;20049;-72
2024/02/24 04:39:09;;;;;;;7.97;3.08;;;3.20;99.90;;;;;;5062666;28;20029;-72
2024/02/24 04:41:35;;;;;;;6.50;2.90;;;3.20;99.90;;;;;;5063006;28;20025;-72
2024/02/24 04:44:00;;;;;;;10.32;3.33;;;3.20;99.90;;;;;;5063793;28;20021;-72
2024/02/24 04:46:26;;;;;;;8.32;2.85;;;3.20;99.90;;;;;;5063881;28;20052;-71
2024/02/24 04:48:51;;;;;;;7.60;2.90;;;3.20;99.90;;;;;;5061961;28;20064;-73
2024/02/24 04:51:17;;;;;;;8.90;2.72;;;3.30;99.90;;;;;;5063235;28;20397;-72
2024/02/24 04:53:43;;;;;;;8.82;2.97;;;3.30;99.90;;;;;;5061554;28;20052;-72
2024/02/24 04:56:14;;;;;;;9.57;2.80;;;3.30;99.90;;;;;;5061072;28;20037;-72
2024/02/24 04:58:40;;;;;;;6.68;2.72;;;3.30;99.90;;;;;;5063329;28;20065;-72
2024/02/24 05:01:05;;;;;;;7.97;3.17;;;3.40;99.90;;;;;;5061451;28;20021;-70
2024/02/24 05:03:31;;;;;;;6.68;2.70;;;3.40;99.90;;;;;;5062573;28;20036;-71
2024/02/24 05:05:57;;;;;;;7.85;2.78;;;3.40;99.90;;;;;;5061709;28;20107;-71
2024/02/24 05:08:22;;;;;;;7.40;2.95;;;3.40;99.90;;;;;;5062391;28;20045;-72
2024/02/24 05:10:48;;;;;;;13.88;2.80;;;3.50;99.90;;;;;;5061146;28;20043;-70
2024/02/24 05:13:13;;;;;;;6.80;2.70;;;3.50;99.90;;;;;;5062048;28;20017;-70
2024/02/24 05:15:39;;;;;;;4.97;2.55;;;3.50;99.90;;;;;;5061819;28;20029;-73
2024/02/24 05:18:04;;;;;;;11.52;3.00;;;3.50;99.90;;;;;;5062807;28;20021;-72
2024/02/24 05:20:30;;;;;;;8.63;3.17;;;3.50;99.90;;;;;;5063208;28;20021;-72
2024/02/24 05:22:56;;;;;;;8.55;3.03;;;3.60;99.90;;;;;;5062702;28;20031;-71
2024/02/24 05:25:22;;;;;;;8.10;3.03;;;3.60;99.90;;;;;;5061356;28;20077;-72
2024/02/24 05:27:47;;;;;;;7.03;3.40;;;3.70;99.90;;;;;;5063364;28;20421;-71
2024/02/24 05:30:13;;;;;;;10.85;3.35;;;3.70;99.90;;;;;;5061096;28;20017;-72
2024/02/24 05:32:39;;;;;;;9.27;2.67;;;3.80;99.90;;;;;;5063009;28;20017;-72
2024/02/24 05:35:05;;;;;;;9.57;3.15;;;3.80;99.90;;;;;;5062806;28;20032;-73
2024/02/24 05:37:30;;;;;;;8.43;2.80;;;3.80;99.90;;;;;;5061148;28;20052;-72
2024/02/24 05:39:58;;;;;;;10.70;3.05;;;3.80;99.90;;;;;;5058410;28;20032;-72
2024/02/24 05:42:25;;;;;;;9.48;2.90;;;3.80;99.90;;;;;;5059891;28;20025;-72
2024/02/24 05:44:51;;;;;;;10.52;3.08;;;3.80;99.90;;;;;;5059984;28;20040;-72
2024/02/24 05:47:17;;;;;;;11.70;2.95;;;3.90;99.90;;;;;;5061712;28;20028;-71
2024/02/24 05:49:42;;;;;;;10.52;3.10;;;3.90;99.90;;;;;;5058139;28;20028;-72
2024/02/24 05:52:08;;;;;;;9.48;3.00;;;3.90;99.90;;;;;;5060345;28;20029;-71
2024/02/24 05:54:34;;;;;;;7.80;3.28;;;3.90;99.90;;;;;;5062642;28;20017;-71
2024/02/24 05:57:02;;;;;;;6.97;2.63;;;3.90;99.90;;;;;;5060110;28;20032;-72
2024/02/24 05:59:27;;;;;;;7.32;2.80;;;4.00;99.90;;;;;;5062045;28;20070;-71
2024/02/24 06:01:53;;;;;;;8.32;3.17;;;4.00;99.90;;;;;;5061961;28;20025;-73
2024/02/24 06:04:18;;;;;;;8.73;3.22;;;4.00;99.90;;;;;;5062365;28;20033;-71
2024/02/24 06:06:47;;;;;;;8.05;3.08;;;4.00;99.90;;;;;;5060835;28;20025;-71
2024/02/24 06:09:13;;;;;;;8.15;3.00;;;4.00;99.90;;;;;;5061821;28;20049;-71
2024/02/24 06:11:38;;;;;;;12.93;3.03;;;4.00;99.90;;;;;;5062113;28;21394;-71
2024/02/24 06:14:04;;;;;;;7.85;2.90;;;4.00;99.90;;;;;;5059755;28;20071;-72
2024/02/24 06:16:29;;;;;;;7.07;2.80;;;3.90;99.90;;;;;;5062207;28;20083;-72
2024/02/24 06:18:55;;;;;;;9.43;3.15;;;3.90;99.90;;;;;;5061382;28;20021;-72
2024/02/24 06:21:20;;;;;;;10.18;2.90;;;3.90;99.90;;;;;;5062395;28;20077;-71
2024/02/24 06:23:46;;;;;;;8.45;2.78;;;3.90;99.90;;;;;;5061083;28;20067;-73
2024/02/24 06:26:11;;;;;;;15.07;3.50;;;3.90;99.90;;;;;;5061916;28;20047;-71
2024/02/24 06:28:38;;;;;;;8.60;2.67;;;3.90;99.90;;;;;;5062280;28;20021;-70
2024/02/24 06:31:04;;;;;;;12.95;3.00;;;3.90;99.90;;;;;;5062139;28;20025;-72
2024/02/24 06:33:29;;;;;;;17.73;3.58;;;3.90;99.90;;;;;;5060462;28;20029;-72
2024/02/24 06:35:55;;;;;;;11.23;3.40;;;4.00;99.90;;;;;;5060304;28;20029;-72
2024/02/24 06:38:21;;;;;;;10.15;2.92;;;4.00;99.90;;;;;;5062196;28;20536;-72
2024/02/24 06:40:46;;;;;;;12.63;3.70;;;4.00;99.90;;;;;;5060516;28;20029;-71
2024/02/24 06:43:12;;;;;;;6.97;3.20;;;4.10;99.90;;;;;;5056845;28;20036;-72
2024/02/24 06:45:38;;;;;;;11.68;4.60;;;4.10;99.90;;;;;;5059764;28;20029;-72
2024/02/24 06:48:04;;;;;;;14.50;4.65;;;4.10;99.90;;;;;;5060799;28;20025;-72
2024/02/24 06:50:29;;;;;;;9.98;4.25;;;4.10;99.90;;;;;;5060035;28;20052;-71
2024/02/24 06:52:55;;;;;;;7.20;3.67;;;4.10;99.90;;;;;;5060225;28;20081;-75
2024/02/24 06:55:20;;;;;;;10.68;4.15;;;4.20;99.90;;;;;;5060141;28;20029;-71
2024/02/24 06:57:46;;;;;;;16.00;5.65;;;4.20;99.90;;;;;;5060908;28;20048;-72
2024/02/24 07:00:12;;;;;;;10.00;4.18;;;4.30;99.90;;;;;;5060348;28;20025;-72
2024/02/24 07:02:38;;;;;;;10.68;3.40;;;4.30;99.90;;;;;;5061282;28;20032;-72
2024/02/24 07:05:11;;;;;;;7.65;3.03;;;4.30;99.90;;;;;;5061631;28;20017;-71
2024/02/24 07:07:37;;;;;;;10.52;3.05;;;4.40;99.90;;;;;;5061384;28;20027;-73
2024/02/24 07:10:05;;;;;;;10.65;3.20;;;4.40;99.90;;;;;;5059635;28;20057;-72
2024/02/24 07:12:31;;;;;;;7.78;2.88;;;4.40;99.90;;;;;;5061796;28;20060;-72
2024/02/24 07:14:57;;;;;;;6.60;2.63;;;4.40;99.90;;;;;;5064609;28;20036;-70
2024/02/24 07:17:23;;;;;;;6.75;2.90;;;4.50;99.90;;;;;;5064058;28;20536;-71
2024/02/24 07:19:49;;;;;;;9.60;3.40;;;4.50;99.90;;;;;;5065294;28;20021;-73
2024/02/24 07:22:15;;;;;;;8.52;3.00;;;4.60;99.90;;;;;;5064746;28;20017;-73
2024/02/24 07:24:41;;;;;;;16.33;3.47;;;4.60;99.90;;;;;;5065309;28;20036;-71
2024/02/24 07:27:07;;;;;;;7.32;2.65;;;4.60;99.90;;;;;;5063215;28;20021;-73
2024/02/24 07:29:32;;;;;;;9.45;3.15;;;4.70;99.90;;;;;;5064077;28;20092;-73
2024/02/24 07:31:58;;;;;;;12.95;2.90;;;4.70;99.90;;;;;;5061232;28;20025;-70
2024/02/24 07:34:23;;;;;;;11.55;3.20;;;4.80;99.90;;;;;;5063039;28;20119;-72
2024/02/24 07:36:49;;;;;;;10.93;2.67;;;4.80;99.90;;;;;;5065172;28;20055;-72
2024/02/24 07:39:14;;;;;;;10.98;3.00;;;4.80;99.90;;;;;;5061015;28;20043;-72
2024/02/24 07:41:41;;;;;;;8.65;3.10;;;4.90;99.90;;;;;;5060587;28;20112;-74
2024/02/24 07:44:07;;;;;;;11.57;3.35;;;4.90;99.90;;;;;;5057931;28;20486;-73
2024/02/24 07:46:32;;;;;;;6.60;2.63;;;4.90;99.90;;;;;;5063103;28;20048;-74
2024/02/24 07:49:00;;;;;;;10.45;3.25;;;4.90;99.90;;;;;;5061631;28;20025;-75
2024/02/24 07:51:27;;;;;;;9.27;2.95;;;4.90;99.90;;;;;;5061133;28;20033;-71
2024/02/24 07:53:56;;;;;;;10.43;3.13;;;4.90;99.90;;;;;;5061237;28;20025;-73
2024/02/24 07:56:25;;;;;;;7.15;3.30;;;4.90;99.90;;;;;;5063607;28;20481;-72
2024/02/24 07:58:51;;;;;;;10.60;2.85;;;5.00;99.90;;;;;;5061999;28;20462;-72
2024/02/24 08:01:17;;;;;;;7.25;3.10;;;5.00;99.90;;;;;;5058276;28;20036;-73
2024/02/24 08:03:43;;;;;;;9.23;3.00;;;5.00;99.90;;;;;;5054878;28;20025;-72
2024/02/24 08:06:09;;;;;;;8.32;2.60;;;5.10;99.90;;;;;;5062428;28;20029;-73
2024/02/24 08:08:36;;;;;;;9.13;3.05;;;5.10;99.90;;;;;;5061078;28;20113;-72
2024/02/24 08:11:05;;;;;;;10.35;3.47;;;5.20;99.90;;;;;;5060395;28;20025;-70
2024/02/24 08:13:41;;;;;;;9.73;3.42;;;5.20;99.90;;;;;;5060926;28;20032;-71
2024/02/24 08:16:08;;;;;;;10.55;3.40;;;5.30;99.90;;;;;;5057595;28;20036;-72
2024/02/24 08:18:35;;;;;;;9.38;3.20;;;5.30;99.90;;;;;;5060087;28;20104;-72
2024/02/24 08:21:07;;;;;;;6.85;3.00;;;5.40;99.90;;;;;;5058834;28;20029;-73
2024/02/24 08:23:36;;;;;;;8.38;3.17;;;5.40;99.90;;;;;;5061239;28;20075;-72
2024/02/24 08:26:02;;;;;;;14.23;3.35;;;5.50;99.90;;;;;;5062090;28;20029;-72
2024/02/24 08:28:28;;;;;;;10.95;3.53;;;5.50;99.90;;;;;;5062726;28;20035;-72
2024/02/24 08:30:53;;;;;;;10.80;2.75;;;5.50;99.90;;;;;;5062045;28;20055;-73
2024/02/24 08:33:22;;;;;;;10.20;3.72;;;5.60;99.90;;;;;;5060610;28;20103;-73
2024/02/24 08:35:49;;;;;;;6.97;3.40;;;5.60;99.90;;;;;;5061214;28;20025;-72
2024/02/24 08:38:16;;;;;;;11.88;3.33;;;5.60;99.90;;;;;;5063808;28;20040;-73
2024/02/24 08:40:41;;;;;;;7.40;3.45;;;5.60;99.90;;;;;;5061833;28;20026;-72
2024/02/24 08:43:07;;;;;;;9.27;3.85;;;5.70;99.90;;;;;;5061647;28;20028;-73
2024/02/24 08:45:32;;;;;;;15.30;3.70;;;5.80;99.90;;;;;;5061468;28;20040;-73
2024/02/24 08:47:58;;;;;;;9.98;3.50;;;5.80;99.90;;;;;;5059642;28;20029;-72
2024/02/24 08:50:24;;;;;;;10.25;3.22;;;5.90;99.90;;;;;;5062409;28;20029;-74
2024/02/24 08:52:49;;;;;;;9.50;3.50;;;5.90;99.90;;;;;;5063605;28;20032;-74
2024/02/24 08:55:15;;;;;;;8.60;3.15;;;5.90;99.90;;;;;;5062397;28;20029;-73
2024/02/24 08:57:41;;;;;;;7.25;3.38;;;6.00;99.90;;;;;;5063261;28;20894;-73
2024/02/24 09:00:08;;;;;;;8.68;3.42;;;6.00;99.90;;;;;;5062025;28;20025;-72
2024/02/24 09:02:34;;;;;;;6.43;3.20;;;6.00;99.90;;;;;;5061146;28;20033;-73
2024/02/24 09:04:59;;;;;;;9.65;3.40;;;6.10;99.90;;;;;;5061481;28;20027;-73
2024/02/24 09:07:25;;;;;;;9.18;3.97;;;6.10;99.90;;;;;;5062258;28;20059;-72
2024/02/24 09:09:50;;;;;;;8.65;3.45;;;6.10;99.90;;;;;;5060932;28;20049;-73
2024/02/24 09:12:16;;;;;;;8.73;3.17;;;6.30;99.90;;;;;;5058393;28;20029;-74
2024/02/24 09:14:41;;;;;;;12.82;3.53;;;6.40;99.90;;;;;;5061302;28;20060;-72
2024/02/24 09:17:07;;;;;;;12.70;3.40;;;6.50;99.90;;;;;;5059325;28;20037;-71
2024/02/24 09:19:33;;;;;;;5.93;3.03;;;6.50;99.90;;;;;;5061593;28;20032;-72
2024/02/24 09:21:59;;;;;;;9.60;3.03;;;6.60;99.90;;;;;;5061737;28;20033;-72
2024/02/24 09:24:37;;;;;;;6.72;2.75;;;6.60;99.90;;;;;;5061363;28;20070;-72
2024/02/24 09:27:03;;;;;;;7.95;2.90;;;6.70;99.90;;;;;;5062644;28;20025;-71
2024/02/24 09:29:28;;;;;;;13.23;3.33;;;6.80;99.90;;;;;;5059552;28;20033;-72
2024/02/24 09:31:54;;;;;;;8.65;3.00;;;6.80;99.90;;;;;;5060544;28;20047;-71
2024/02/24 09:34:20;;;;;;;9.77;3.10;;;6.80;99.90;;;;;;5061766;28;20036;-73
2024/02/24 09:36:45;;;;;;;5.43;2.80;;;6.90;99.90;;;;;;5060095;28;20068;-73
2024/02/24 09:39:13;;;;;;;8.05;3.38;;;7.00;99.90;;;;;;5061127;28;20024;-72
2024/02/24 09:41:39;;;;;;;9.00;2.90;;;7.10;99.90;;;;;;5061299;28;20075;-73
2024/02/24 09:44:05;;;;;;;7.28;2.75;;;7.30;99.90;;;;;;5055224;28;20044;-73
2024/02/24 09:46:40;;;;;;;6.22;2.90;;;7.50;99.90;;;;;;5054442;28;20135;-73
2024/02/24 09:49:06;;;;;;;7.50;3.28;;;7.60;99.90;;;;;;5054909;28;20051;-72
2024/02/24 09:51:34;;;;;;;10.20;4.30;;;7.80;99.90;;;;;;5058555;28;20492;-71
2024/02/24 09:54:01;;;;;;;6.78;3.97;;;7.90;99.90;;;;;;5061093;28;20060;-72
2024/02/24 09:56:28;;;;;;;6.43;3.28;;;8.00;99.90;;;;;;5062418;28;20036;-73
2024/02/24 09:58:54;;;;;;;10.45;4.43;;;8.10;99.90;;;;;;5060317;28;20088;-74
2024/02/24 10:01:19;;;;;;;6.43;3.28;;;8.20;99.90;;;;;;5059418;28;20057;-73
2024/02/24 10:03:46;;;;;;;7.07;3.50;;;8.40;99.90;;;;;;5058575;28;20029;-73
2024/02/24 10:06:11;;;;;;;6.63;3.88;;;8.50;99.90;;;;;;5058361;28;20040;-74
2024/02/24 10:08:40;;;;;;;10.05;4.43;;;8.60;99.90;;;;;;5061891;28;20040;-71
2024/02/24 10:11:06;;;;;;;11.25;5.75;;;8.60;99.90;;;;;;5059923;28;20096;-72
2024/02/24 10:13:35;;;;;;;9.55;4.57;;;8.50;99.90;;;;;;5062208;28;20045;-72
2024/02/24 10:16:06;;;;;;;11.15;4.53;;;8.50;99.90;;;;;;5060816;28;20464;-71
2024/02/24 10:18:32;;;;;;;5.32;3.50;;;8.40;99.90;;;;;;5061063;28;20035;-73
2024/02/24 10:20:58;;;;;;;12.00;6.63;;;8.30;99.90;;;;;;5062350;28;20033;-72
2024/02/24 10:23:24;;;;;;;9.63;5.10;;;8.40;99.90;;;;;;5058823;28;20037;-71
2024/02/24 10:25:49;;;;;;;5.78;3.60;;;8.60;99.90;;;;;;5058047;28;20025;-72
2024/02/24 10:28:16;;;;;;;7.28;3.45;;;9.10;99.90;;;;;;5060145;28;20556;-71
2024/02/24 10:30:41;;;;;;;7.18;3.95;;;9.70;99.90;;;;;;5053597;28;20037;-72
2024/02/24 10:33:12;;;;;;;7.35;3.33;;;10.20;99.90;;;;;;5059241;28;20096;-70
2024/02/24 10:35:37;;;;;;;8.00;4.07;;;10.50;99.90;;;;;;5060239;28;20033;-70
2024/02/24 10:38:04;;;;;;;4.53;2.83;;;10.60;99.90;;;;;;5060715;28;20037;-69
2024/02/24 10:40:32;;;;;;;6.65;3.75;;;10.60;99.90;;;;;;5061724;28;20060;-71
2024/02/24 10:42:59;;;;;;;6.10;3.63;;;10.30;99.90;;;;;;5060352;28;20474;-71
2024/02/24 10:45:31;;;;;;;7.60;3.88;;;10.10;99.90;;;;;;5061812;28;20040;-71
2024/02/24 10:48:00;;;;;;;9.40;3.85;;;9.90;99.90;;;;;;5063924;28;20024;-71
2024/02/24 10:50:26;;;;;;;6.22;3.28;;;9.60;99.90;;;;;;5063561;28;20025;-73
2024/02/24 10:52:54;;;;;;;5.85;4.00;;;9.50;99.90;;;;;;5064987;28;20029;-73
2024/02/24 10:55:22;;;;;;;5.38;3.70;;;9.40;99.90;;;;;;5065782;28;20021;-72
2024/02/24 10:57:52;;;;;;;6.38;3.60;;;9.40;99.90;;;;;;5063974;28;20037;-70
2024/02/24 11:00:31;;;;;;;9.35;4.72;;;9.50;99.90;;;;;;5065419;28;20545;-73
2024/02/24 11:03:01;;;;;;;8.63;4.10;;;9.60;99.90;;;;;;5064101;28;20025;-71
2024/02/24 11:05:30;;;;;;;9.13;4.25;;;9.80;99.90;;;;;;5064846;28;20103;-71
2024/02/24 11:07:56;;;;;;;7.22;3.83;;;10.00;99.90;;;;;;5061081;28;20515;-71
2024/02/24 11:10:22;;;;;;;7.88;3.95;;;10.50;99.90;;;;;;5064993;28;20025;-71
2024/02/24 11:12:51;;;;;;;6.35;4.18;;;10.90;99.90;;;;;;5065390;28;20037;-73
2024/02/24 11:15:24;;;;;;;8.57;5.03;;;11.10;99.90;;;;;;5060665;28;20068;-73
2024/02/24 11:17:57;;;;;;;7.25;4.70;;;11.20;99.90;;;;;;5058074;28;20524;-72
2024/02/24 11:20:38;;;;;;;7.55;4.22;;;11.30;99.90;;;;;;5057757;28;20477;-73
2024/02/24 11:23:20;;;;;;;10.07;6.78;;;11.30;99.90;;;;;;5063921;28;20021;-72
2024/02/24 11:25:46;;;;;;;8.57;4.90;;;11.20;99.90;;;;;;5058914;28;20083;-74
2024/02/24 11:28:20;;;;;;;10.93;5.53;;;11.10;99.90;;;;;;5061005;28;20032;-71
2024/02/24 11:30:48;;;;;;;9.77;5.18;;;10.80;99.90;;;;;;5058365;28;20036;-72
2024/02/24 11:33:24;;;;;;;8.27;4.75;;;10.30;99.90;;;;;;5054086;28;20033;-72
2024/02/24 11:35:51;;;;;;;8.27;4.72;;;10.00;99.90;;;;;;5061815;28;20029;-71
2024/02/24 11:38:19;;;;;;;10.80;5.15;;;9.90;99.90;;;;;;5059107;28;20044;-72
2024/02/24 11:40:48;;;;;;;7.25;4.82;;;9.80;99.90;;;;;;5061697;28;20424;-71
2024/02/24 11:43:14;;;;;;;8.50;5.32;;;9.80;99.90;;;;;;5060713;28;20029;-72
2024/02/24 11:45:48;;;;;;;9.02;4.60;;;9.80;99.90;;;;;;5056542;28;20059;-71
2024/02/24 11:48:15;;;;;;;6.28;4.22;;;9.90;99.90;;;;;;5056521;28;20036;-71
2024/02/24 11:50:41;;;;;;;6.68;4.13;;;10.00;99.90;;;;;;5063631;28;20043;-72
2024/02/24 11:53:07;;;;;;;9.60;4.18;;;10.00;99.90;;;;;;5064772;28;20048;-69
2024/02/24 11:55:34;;;;;;;5.65;3.72;;;10.10;99.90;;;;;;5064448;28;20351;-70
2024/02/24 11:58:00;;;;;;;9.50;4.30;;;10.10;99.90;;;;;;5062586;28;20044;-72
2024/02/24 12:00:25;;;;;;;7.43;3.90;;;10.10;99.90;;;;;;5064156;28;20055;-72
2024/02/24 12:02:51;;;;;;;6.80;4.18;;;10.00;99.90;;;;;;5064656;28;20466;-71
2024/02/24 12:05:17;;;;;;;8.95;3.90;;;9.70;99.90;;;;;;5062831;28;20076;-70
2024/02/24 12:07:43;;;;;;;6.50;3.47;;;9.60;99.90;;;;;;5064293;28;20048;-72
2024/02/24 12:10:10;;;;;;;5.03;3.00;;;9.50;99.90;;;;;;5063744;28;20467;-72
2024/02/24 12:12:36;;;;;;;6.05;3.92;;;9.70;99.90;;;;;;5064027;28;20024;-71
2024/02/24 12:15:01;;;;;;;6.38;3.72;;;9.90;99.90;;;;;;5064432;28;20028;-72
2024/02/24 12:17:27;;;;;;;6.43;3.70;;;10.30;99.90;;;;;;5062965;28;20041;-73
2024/02/24 12:19:54;;;;;;;5.60;3.75;;;10.40;99.90;;;;;;5061869;28;20031;-73
2024/02/24 12:22:22;;;;;;;5.00;3.60;;;10.40;99.90;;;;;;5064020;28;20021;-71
2024/02/24 12:24:48;;;;;;;7.47;4.20;;;10.40;99.90;;;;;;5063832;28;20025;-73
2024/02/24 12:27:13;;;;;;;4.88;3.20;;;10.40;99.90;;;;;;5063920;28;20545;-72
2024/02/24 12:29:40;;;;;;;5.25;3.05;;;10.60;99.90;;;;;;5064318;28;20022;-71
2024/02/24 12:32:06;;;;;;;6.13;3.55;;;11.10;99.90;;;;;;5063605;28;20017;-70
2024/02/24 12:34:32;;;;;;;5.72;3.28;;;11.70;99.90;;;;;;5063989;28;20075;-69
2024/02/24 12:36:58;;;;;;;3.45;2.70;;;12.10;99.90;;;;;;5063456;28;20032;-72
2024/02/24 12:39:24;;;;;;;4.38;2.90;;;12.30;99.90;;;;;;5063874;28;20017;-70
2024/02/24 12:41:52;;;;;;;52.50;21.02;;;12.10;99.90;;;;;;5062748;28;20037;-72
2024/02/24 12:44:17;;;;;;;10.65;4.88;;;11.70;99.90;;;;;;5063564;28;20716;-72
2024/02/24 12:46:44;;;;;;;5.22;3.55;;;11.30;99.90;;;;;;5063435;28;20515;-72
2024/02/24 12:49:09;;;;;;;7.65;4.28;;;11.00;99.90;;;;;;5063777;28;20017;-74